sensor_id;sensor_type;location;lat;lon;timestamp;pressure;altitude;pressure_sealevel;temperature;humidity
54407;BME280;40313;50.308;30.374;2022-10-03T00:01:03;98098.03;;;7.50;100.00
54407;BME280;40313;50.308;30.374;2022-10-03T00:03:39;98080.69;;;7.51;100.00
54407;BME280;40313;50.308;30.374;2022-10-03T00:06:14;98086.47;;;7.54;100.00
54407;BME280;40313;50.308;30.374;2022-10-03T00:09:03;98084.94;;;7.52;100.00
54407;BME280;40313;50.308;30.374;2022-10-03T00:11:41;98082.84;;;7.57;100.00
54407;BME280;40313;50.308;30.374;2022-10-03T00:14:18;98076.63;;;7.59;100.00
54407;BME280;40313;50.308;30.374;2022-10-03T00:16:52;98065.13;;;7.51;100.00
54407;BME280;40313;50.308;30.374;2022-10-03T00:19:34;98068.94;;;7.58;100.00
54407;BME280;40313;50.308;30.374;2022-10-03T00:22:11;98065.91;;;7.64;100.00
54407;BME280;40313;50.308;30.374;2022-10-03T00:24:55;98064.16;;;7.65;100.00
54407;BME280;40313;50.308;30.374;2022-10-03T00:27:31;98068.09;;;7.70;100.00
54407;BME280;40313;50.308;30.374;2022-10-03T00:30:14;98058.88;;;7.66;100.00
54407;BME280;40313;50.308;30.374;2022-10-03T00:32:55;98056.88;;;7.70;100.00
54407;BME280;40313;50.308;30.374;2022-10-03T00:35:53;98052.00;;;7.65;100.00
54407;BME280;40313;50.308;30.374;2022-10-03T00:38:47;98054.38;;;7.68;100.00
54407;BME280;40313;50.308;30.374;2022-10-03T00:41:35;98056.28;;;7.66;100.00
54407;BME280;40313;50.308;30.374;2022-10-03T00:47:24;98056.88;;;7.70;100.00
54407;BME280;40313;50.308;30.374;2022-10-03T00:50:16;98046.00;;;7.65;100.00
54407;BME280;40313;50.308;30.374;2022-10-03T00:53:15;98047.34;;;7.70;100.00
54407;BME280;40313;50.308;30.374;2022-10-03T00:55:57;98044.22;;;7.65;100.00
54407;BME280;40313;50.308;30.374;2022-10-03T00:58:44;98047.13;;;7.73;100.00
54407;BME280;40313;50.308;30.374;2022-10-03T01:01:27;98047.00;;;7.75;100.00
54407;BME280;40313;50.308;30.374;2022-10-03T01:04:10;98050.19;;;7.78;100.00
54407;BME280;40313;50.308;30.374;2022-10-03T01:06:46;98043.78;;;7.71;100.00
54407;BME280;40313;50.308;30.374;2022-10-03T01:12:37;98041.06;;;7.73;100.00
54407;BME280;40313;50.308;30.374;2022-10-03T01:15:19;98035.78;;;7.74;100.00
54407;BME280;40313;50.308;30.374;2022-10-03T01:18:07;98036.72;;;7.73;100.00
54407;BME280;40313;50.308;30.374;2022-10-03T01:20:46;98028.84;;;7.75;100.00
54407;BME280;40313;50.308;30.374;2022-10-03T01:23:50;98036.72;;;7.73;100.00
54407;BME280;40313;50.308;30.374;2022-10-03T01:26:35;98046.78;;;7.78;100.00
54407;BME280;40313;50.308;30.374;2022-10-03T01:29:09;98033.91;;;7.76;100.00
54407;BME280;40313;50.308;30.374;2022-10-03T01:31:58;98030.91;;;7.70;100.00
54407;BME280;40313;50.308;30.374;2022-10-03T01:34:34;98038.88;;;7.79;100.00
54407;BME280;40313;50.308;30.374;2022-10-03T01:37:09;98036.06;;;7.83;100.00
54407;BME280;40313;50.308;30.374;2022-10-03T01:39:44;98033.59;;;7.81;100.00
54407;BME280;40313;50.308;30.374;2022-10-03T01:42:17;98033.00;;;7.77;100.00
54407;BME280;40313;50.308;30.374;2022-10-03T01:45:02;98034.63;;;7.78;100.00
54407;BME280;40313;50.308;30.374;2022-10-03T01:47:38;98040.34;;;7.84;100.00
54407;BME280;40313;50.308;30.374;2022-10-03T01:50:16;98036.06;;;7.83;100.00
54407;BME280;40313;50.308;30.374;2022-10-03T01:52:50;98032.03;;;7.78;100.00
54407;BME280;40313;50.308;30.374;2022-10-03T01:55:24;98043.16;;;7.81;100.00
54407;BME280;40313;50.308;30.374;2022-10-03T01:57:59;98041.88;;;7.86;100.00
54407;BME280;40313;50.308;30.374;2022-10-03T02:00:34;98041.38;;;7.81;100.00
54407;BME280;40313;50.308;30.374;2022-10-03T02:03:11;98041.03;;;7.86;100.00
54407;BME280;40313;50.308;30.374;2022-10-03T02:05:48;98033.38;;;7.84;100.00
54407;BME280;40313;50.308;30.374;2022-10-03T02:08:27;98037.03;;;7.82;100.00
54407;BME280;40313;50.308;30.374;2022-10-03T02:10:59;98039.06;;;7.89;100.00
54407;BME280;40313;50.308;30.374;2022-10-03T02:13:35;98032.94;;;7.90;100.00
54407;BME280;40313;50.308;30.374;2022-10-03T02:16:09;98036.25;;;7.92;100.00
54407;BME280;40313;50.308;30.374;2022-10-03T02:18:44;98031.06;;;7.92;100.00
54407;BME280;40313;50.308;30.374;2022-10-03T02:21:16;98025.88;;;7.92;100.00
54407;BME280;40313;50.308;30.374;2022-10-03T02:23:48;98029.50;;;7.90;100.00
54407;BME280;40313;50.308;30.374;2022-10-03T02:26:53;98026.09;;;7.89;100.00
54407;BME280;40313;50.308;30.374;2022-10-03T02:29:48;98031.97;;;7.91;100.00
54407;BME280;40313;50.308;30.374;2022-10-03T02:32:35;98028.47;;;7.92;100.00
54407;BME280;40313;50.308;30.374;2022-10-03T02:35:27;98016.53;;;7.90;100.00
54407;BME280;40313;50.308;30.374;2022-10-03T02:38:30;98027.34;;;7.84;100.00
54407;BME280;40313;50.308;30.374;2022-10-03T02:41:16;98035.66;;;7.89;100.00
54407;BME280;40313;50.308;30.374;2022-10-03T02:50:23;98027.66;;;7.92;100.00
54407;BME280;40313;50.308;30.374;2022-10-03T02:56:12;98024.94;;;7.93;100.00
54407;BME280;40313;50.308;30.374;2022-10-03T03:05:11;98014.03;;;7.88;100.00
54407;BME280;40313;50.308;30.374;2022-10-03T03:08:19;98016.03;;;7.85;100.00
54407;BME280;40313;50.308;30.374;2022-10-03T03:11:32;98026.53;;;7.83;100.00
54407;BME280;40313;50.308;30.374;2022-10-03T03:14:39;98017.47;;;7.89;100.00
54407;BME280;40313;50.308;30.374;2022-10-03T03:17:22;98022.75;;;7.87;100.00
54407;BME280;40313;50.308;30.374;2022-10-03T03:20:15;97999.34;;;7.76;100.00
54407;BME280;40313;50.308;30.374;2022-10-03T03:23:10;98009.69;;;7.89;100.00
54407;BME280;40313;50.308;30.374;2022-10-03T03:25:55;98016.16;;;7.83;100.00
54407;BME280;40313;50.308;30.374;2022-10-03T03:28:33;98010.84;;;7.85;100.00
54407;BME280;40313;50.308;30.374;2022-10-03T03:31:09;98011.06;;;7.82;100.00
54407;BME280;40313;50.308;30.374;2022-10-03T03:33:46;98021.16;;;7.73;100.00
54407;BME280;40313;50.308;30.374;2022-10-03T03:36:25;98019.59;;;7.71;100.00
54407;BME280;40313;50.308;30.374;2022-10-03T03:39:05;98023.25;;;7.68;100.00
54407;BME280;40313;50.308;30.374;2022-10-03T03:41:46;98016.72;;;7.63;100.00
54407;BME280;40313;50.308;30.374;2022-10-03T03:44:40;98014.13;;;7.63;100.00
54407;BME280;40313;50.308;30.374;2022-10-03T03:47:25;98021.31;;;7.59;100.00
54407;BME280;40313;50.308;30.374;2022-10-03T03:50:09;98010.72;;;7.49;100.00
54407;BME280;40313;50.308;30.374;2022-10-03T03:52:48;98013.44;;;7.48;100.00
54407;BME280;40313;50.308;30.374;2022-10-03T03:55:31;98016.34;;;7.43;100.00
54407;BME280;40313;50.308;30.374;2022-10-03T03:58:17;98013.25;;;7.38;100.00
54407;BME280;40313;50.308;30.374;2022-10-03T04:01:01;98021.44;;;7.44;100.00
54407;BME280;40313;50.308;30.374;2022-10-03T04:03:42;98018.63;;;7.48;100.00
54407;BME280;40313;50.308;30.374;2022-10-03T04:06:25;98019.66;;;7.45;100.00
54407;BME280;40313;50.308;30.374;2022-10-03T04:09:13;98008.56;;;7.43;100.00
54407;BME280;40313;50.308;30.374;2022-10-03T04:11:53;98012.00;;;7.43;100.00
54407;BME280;40313;50.308;30.374;2022-10-03T04:14:36;98019.22;;;7.51;100.00
54407;BME280;40313;50.308;30.374;2022-10-03T04:17:17;98020.19;;;7.50;100.00
54407;BME280;40313;50.308;30.374;2022-10-03T04:20:16;98021.50;;;7.56;100.00
54407;BME280;40313;50.308;30.374;2022-10-03T04:23:05;98024.00;;;7.57;100.00
54407;BME280;40313;50.308;30.374;2022-10-03T04:25:52;98020.34;;;7.60;100.00
54407;BME280;40313;50.308;30.374;2022-10-03T04:28:41;98012.38;;;7.63;100.00
54407;BME280;40313;50.308;30.374;2022-10-03T04:31:24;98002.47;;;7.68;100.00
54407;BME280;40313;50.308;30.374;2022-10-03T04:34:06;98021.50;;;7.69;100.00
54407;BME280;40313;50.308;30.374;2022-10-03T04:37:00;98005.47;;;7.75;100.00
54407;BME280;40313;50.308;30.374;2022-10-03T04:39:35;97996.53;;;7.79;100.00
54407;BME280;40313;50.308;30.374;2022-10-03T04:42:11;97996.09;;;7.85;100.00
54407;BME280;40313;50.308;30.374;2022-10-03T04:44:55;97986.31;;;7.89;100.00
54407;BME280;40313;50.308;30.374;2022-10-03T04:47:31;97985.13;;;7.93;100.00
54407;BME280;40313;50.308;30.374;2022-10-03T04:50:03;97989.19;;;7.97;100.00
54407;BME280;40313;50.308;30.374;2022-10-03T04:52:39;97987.59;;;8.07;100.00
54407;BME280;40313;50.308;30.374;2022-10-03T04:55:18;97974.84;;;8.16;100.00
54407;BME280;40313;50.308;30.374;2022-10-03T04:57:51;97986.44;;;8.23;100.00
54407;BME280;40313;50.308;30.374;2022-10-03T05:00:23;97976.72;;;8.38;100.00
54407;BME280;40313;50.308;30.374;2022-10-03T05:03:02;97975.00;;;8.50;100.00
54407;BME280;40313;50.308;30.374;2022-10-03T05:05:49;97974.31;;;8.59;100.00
54407;BME280;40313;50.308;30.374;2022-10-03T05:08:36;97969.97;;;8.71;100.00
54407;BME280;40313;50.308;30.374;2022-10-03T05:11:14;97961.13;;;8.85;100.00
54407;BME280;40313;50.308;30.374;2022-10-03T05:13:52;97969.63;;;8.98;100.00
54407;BME280;40313;50.308;30.374;2022-10-03T05:16:30;97968.22;;;9.05;100.00
54407;BME280;40313;50.308;30.374;2022-10-03T05:19:18;97978.50;;;9.18;100.00
54407;BME280;40313;50.308;30.374;2022-10-03T05:21:54;97972.38;;;9.30;100.00
54407;BME280;40313;50.308;30.374;2022-10-03T05:24:32;97974.09;;;9.41;100.00
54407;BME280;40313;50.308;30.374;2022-10-03T05:27:10;97970.06;;;9.48;100.00
54407;BME280;40313;50.308;30.374;2022-10-03T05:29:41;97984.75;;;9.61;100.00
54407;BME280;40313;50.308;30.374;2022-10-03T05:32:19;97983.31;;;9.68;100.00
54407;BME280;40313;50.308;30.374;2022-10-03T05:35:03;97982.47;;;9.79;100.00
54407;BME280;40313;50.308;30.374;2022-10-03T05:40:29;97978.72;;;9.93;100.00
54407;BME280;40313;50.308;30.374;2022-10-03T05:43:05;97975.78;;;9.97;100.00
54407;BME280;40313;50.308;30.374;2022-10-03T05:45:46;97982.97;;;10.05;100.00
54407;BME280;40313;50.308;30.374;2022-10-03T05:48:24;97976.81;;;10.06;100.00
54407;BME280;40313;50.308;30.374;2022-10-03T05:51:27;97975.28;;;10.03;100.00
54407;BME280;40313;50.308;30.374;2022-10-03T05:54:28;97973.91;;;10.20;100.00
54407;BME280;40313;50.308;30.374;2022-10-03T05:57:44;97973.31;;;10.17;100.00
54407;BME280;40313;50.308;30.374;2022-10-03T06:00:19;97979.25;;;10.19;100.00
54407;BME280;40313;50.308;30.374;2022-10-03T06:05:45;97985.47;;;10.28;100.00
54407;BME280;40313;50.308;30.374;2022-10-03T06:08:44;97984.22;;;10.54;100.00
54407;BME280;40313;50.308;30.374;2022-10-03T06:14:23;97978.50;;;10.92;100.00
54407;BME280;40313;50.308;30.374;2022-10-03T06:17:03;97982.69;;;11.04;100.00
54407;BME280;40313;50.308;30.374;2022-10-03T06:19:46;97982.38;;;11.28;100.00
54407;BME280;40313;50.308;30.374;2022-10-03T06:22:46;97975.84;;;11.44;100.00
54407;BME280;40313;50.308;30.374;2022-10-03T06:25:49;97965.31;;;11.65;100.00
54407;BME280;40313;50.308;30.374;2022-10-03T06:28:49;97980.59;;;11.89;100.00
54407;BME280;40313;50.308;30.374;2022-10-03T06:34:41;97986.97;;;12.55;100.00
54407;BME280;40313;50.308;30.374;2022-10-03T06:37:42;97979.22;;;12.63;100.00
54407;BME280;40313;50.308;30.374;2022-10-03T06:40:34;97982.28;;;12.49;100.00
54407;BME280;40313;50.308;30.374;2022-10-03T06:43:24;97990.00;;;12.31;100.00
54407;BME280;40313;50.308;30.374;2022-10-03T06:46:21;97998.94;;;12.18;100.00
54407;BME280;40313;50.308;30.374;2022-10-03T06:49:37;98005.81;;;12.00;100.00
54407;BME280;40313;50.308;30.374;2022-10-03T06:52:26;98000.75;;;12.27;100.00
54407;BME280;40313;50.308;30.374;2022-10-03T06:58:54;97995.78;;;12.24;100.00
54407;BME280;40313;50.308;30.374;2022-10-03T07:01:56;98008.44;;;12.49;100.00
54407;BME280;40313;50.308;30.374;2022-10-03T07:10:54;98001.81;;;12.44;100.00
54407;BME280;40313;50.308;30.374;2022-10-03T07:13:47;98005.69;;;12.31;100.00
54407;BME280;40313;50.308;30.374;2022-10-03T07:16:50;98011.59;;;12.33;100.00
54407;BME280;40313;50.308;30.374;2022-10-03T07:22:48;98013.94;;;12.16;100.00
54407;BME280;40313;50.308;30.374;2022-10-03T07:25:50;98026.72;;;12.00;100.00
54407;BME280;40313;50.308;30.374;2022-10-03T07:28:47;98030.59;;;11.74;100.00
54407;BME280;40313;50.308;30.374;2022-10-03T07:31:29;98026.50;;;11.72;100.00
54407;BME280;40313;50.308;30.374;2022-10-03T07:34:17;98017.84;;;11.81;100.00
54407;BME280;40313;50.308;30.374;2022-10-03T07:37:03;98017.44;;;11.86;100.00
54407;BME280;40313;50.308;30.374;2022-10-03T07:40:14;97998.25;;;12.06;100.00
54407;BME280;40313;50.308;30.374;2022-10-03T07:43:16;98011.47;;;12.54;100.00
54407;BME280;40313;50.308;30.374;2022-10-03T07:46:15;97990.78;;;12.70;100.00
54407;BME280;40313;50.308;30.374;2022-10-03T07:49:16;98005.22;;;12.84;100.00
54407;BME280;40313;50.308;30.374;2022-10-03T07:52:02;97994.59;;;12.86;100.00
54407;BME280;40313;50.308;30.374;2022-10-03T07:54:57;98001.19;;;13.00;100.00
54407;BME280;40313;50.308;30.374;2022-10-03T07:57:58;98003.06;;;13.17;100.00
54407;BME280;40313;50.308;30.374;2022-10-03T08:00:40;98001.72;;;13.51;100.00
54407;BME280;40313;50.308;30.374;2022-10-03T08:03:42;98003.69;;;13.67;100.00
54407;BME280;40313;50.308;30.374;2022-10-03T08:06:20;98006.72;;;13.90;100.00
54407;BME280;40313;50.308;30.374;2022-10-03T08:09:02;98004.72;;;13.83;100.00
54407;BME280;40313;50.308;30.374;2022-10-03T08:11:55;98014.34;;;13.83;100.00
54407;BME280;40313;50.308;30.374;2022-10-03T08:14:31;98007.78;;;13.79;100.00
54407;BME280;40313;50.308;30.374;2022-10-03T08:20:16;98019.88;;;14.26;100.00
54407;BME280;40313;50.308;30.374;2022-10-03T08:23:02;98000.56;;;14.53;100.00
54407;BME280;40313;50.308;30.374;2022-10-03T08:25:48;98012.66;;;14.82;100.00
54407;BME280;40313;50.308;30.374;2022-10-03T08:31:29;98010.72;;;14.66;100.00
54407;BME280;40313;50.308;30.374;2022-10-03T08:34:22;98022.78;;;14.41;100.00
54407;BME280;40313;50.308;30.374;2022-10-03T08:37:21;98022.09;;;14.03;100.00
54407;BME280;40313;50.308;30.374;2022-10-03T08:40:32;98021.94;;;13.86;100.00
54407;BME280;40313;50.308;30.374;2022-10-03T08:43:40;98026.41;;;13.48;100.00
54407;BME280;40313;50.308;30.374;2022-10-03T08:46:43;98015.63;;;13.51;100.00
54407;BME280;40313;50.308;30.374;2022-10-03T08:49:39;98028.06;;;13.49;100.00
54407;BME280;40313;50.308;30.374;2022-10-03T08:52:22;98017.13;;;13.16;100.00
54407;BME280;40313;50.308;30.374;2022-10-03T08:58:16;98027.50;;;12.98;100.00
54407;BME280;40313;50.308;30.374;2022-10-03T09:01:05;98019.06;;;13.04;100.00
54407;BME280;40313;50.308;30.374;2022-10-03T09:04:12;98023.38;;;12.95;100.00
54407;BME280;40313;50.308;30.374;2022-10-03T09:06:59;98018.84;;;12.98;100.00
54407;BME280;40313;50.308;30.374;2022-10-03T09:10:04;98028.75;;;12.94;100.00
54407;BME280;40313;50.308;30.374;2022-10-03T09:13:03;98034.75;;;13.24;100.00
54407;BME280;40313;50.308;30.374;2022-10-03T09:19:02;98027.03;;;13.60;100.00
54407;BME280;40313;50.308;30.374;2022-10-03T09:22:02;98026.78;;;13.81;100.00
54407;BME280;40313;50.308;30.374;2022-10-03T09:28:25;98019.81;;;14.17;100.00
54407;BME280;40313;50.308;30.374;2022-10-03T09:31:16;98021.88;;;14.50;100.00
54407;BME280;40313;50.308;30.374;2022-10-03T09:34:11;98026.34;;;14.67;100.00
54407;BME280;40313;50.308;30.374;2022-10-03T09:37:16;98030.91;;;14.65;100.00
54407;BME280;40313;50.308;30.374;2022-10-03T09:43:28;98033.38;;;14.31;100.00
54407;BME280;40313;50.308;30.374;2022-10-03T09:46:30;98028.78;;;14.51;100.00
54407;BME280;40313;50.308;30.374;2022-10-03T09:49:24;98036.88;;;14.76;100.00
54407;BME280;40313;50.308;30.374;2022-10-03T09:52:09;98027.53;;;14.99;100.00
54407;BME280;40313;50.308;30.374;2022-10-03T09:54:56;98037.66;;;14.94;100.00
54407;BME280;40313;50.308;30.374;2022-10-03T10:00:24;98049.78;;;14.51;100.00
54407;BME280;40313;50.308;30.374;2022-10-03T10:06:24;98051.03;;;14.47;100.00
54407;BME280;40313;50.308;30.374;2022-10-03T10:09:20;98048.97;;;14.50;100.00
54407;BME280;40313;50.308;30.374;2022-10-03T10:12:08;98053.22;;;14.51;100.00
54407;BME280;40313;50.308;30.374;2022-10-03T10:14:59;98053.91;;;14.72;100.00
54407;BME280;40313;50.308;30.374;2022-10-03T10:18:22;98059.34;;;14.60;100.00
54407;BME280;40313;50.308;30.374;2022-10-03T10:21:20;98053.66;;;14.47;100.00
54407;BME280;40313;50.308;30.374;2022-10-03T10:24:06;98057.25;;;14.46;100.00
54407;BME280;40313;50.308;30.374;2022-10-03T10:30:22;98058.47;;;14.51;100.00
54407;BME280;40313;50.308;30.374;2022-10-03T10:33:23;98061.53;;;14.83;100.00
54407;BME280;40313;50.308;30.374;2022-10-03T10:36:15;98053.78;;;14.99;100.00
54407;BME280;40313;50.308;30.374;2022-10-03T10:39:30;98047.78;;;15.42;100.00
54407;BME280;40313;50.308;30.374;2022-10-03T10:42:38;98047.34;;;15.81;100.00
54407;BME280;40313;50.308;30.374;2022-10-03T10:45:41;98044.03;;;15.79;100.00
54407;BME280;40313;50.308;30.374;2022-10-03T10:51:57;98056.47;;;15.34;100.00
54407;BME280;40313;50.308;30.374;2022-10-03T10:54:46;98060.84;;;15.25;100.00
54407;BME280;40313;50.308;30.374;2022-10-03T10:57:32;98064.91;;;14.93;100.00
54407;BME280;40313;50.308;30.374;2022-10-03T11:00:20;98056.19;;;14.66;100.00
54407;BME280;40313;50.308;30.374;2022-10-03T11:03:17;98063.84;;;14.86;100.00
54407;BME280;40313;50.308;30.374;2022-10-03T11:15:32;98050.31;;;14.37;100.00
54407;BME280;40313;50.308;30.374;2022-10-03T11:19:06;98057.28;;;14.28;100.00
54407;BME280;40313;50.308;30.374;2022-10-03T11:22:17;98067.09;;;14.44;100.00
54407;BME280;40313;50.308;30.374;2022-10-03T11:25:29;98062.22;;;14.49;100.00
54407;BME280;40313;50.308;30.374;2022-10-03T11:28:31;98066.56;;;14.58;100.00
54407;BME280;40313;50.308;30.374;2022-10-03T11:31:43;98062.81;;;14.79;100.00
54407;BME280;40313;50.308;30.374;2022-10-03T11:34:45;98061.59;;;14.91;100.00
54407;BME280;40313;50.308;30.374;2022-10-03T11:37:33;98057.69;;;14.95;100.00
54407;BME280;40313;50.308;30.374;2022-10-03T11:40:23;98062.84;;;15.05;100.00
54407;BME280;40313;50.308;30.374;2022-10-03T11:42:57;98071.06;;;15.02;100.00
54407;BME280;40313;50.308;30.374;2022-10-03T11:45:31;98064.28;;;14.99;100.00
54407;BME280;40313;50.308;30.374;2022-10-03T11:48:13;98064.63;;;14.78;100.00
54407;BME280;40313;50.308;30.374;2022-10-03T11:50:49;98060.19;;;14.79;100.00
54407;BME280;40313;50.308;30.374;2022-10-03T11:53:30;98051.13;;;14.55;100.00
54407;BME280;40313;50.308;30.374;2022-10-03T11:58:56;98059.09;;;14.63;100.00
54407;BME280;40313;50.308;30.374;2022-10-03T12:01:35;98068.53;;;14.56;100.00
54407;BME280;40313;50.308;30.374;2022-10-03T12:04:10;98064.34;;;14.63;100.00
54407;BME280;40313;50.308;30.374;2022-10-03T12:06:52;98066.88;;;14.73;100.00
54407;BME280;40313;50.308;30.374;2022-10-03T12:09:46;98065.97;;;14.82;100.00
54407;BME280;40313;50.308;30.374;2022-10-03T12:12:27;98061.44;;;14.66;100.00
54407;BME280;40313;50.308;30.374;2022-10-03T12:15:02;98059.75;;;14.83;100.00
54407;BME280;40313;50.308;30.374;2022-10-03T12:17:39;98059.59;;;14.85;100.00
54407;BME280;40313;50.308;30.374;2022-10-03T12:20:17;98057.63;;;14.87;100.00
54407;BME280;40313;50.308;30.374;2022-10-03T12:22:49;98067.00;;;14.90;100.00
54407;BME280;40313;50.308;30.374;2022-10-03T12:25:22;98066.94;;;14.81;100.00
54407;BME280;40313;50.308;30.374;2022-10-03T12:27:58;98070.34;;;14.74;100.00
54407;BME280;40313;50.308;30.374;2022-10-03T12:30:33;98063.56;;;14.53;100.00
54407;BME280;40313;50.308;30.374;2022-10-03T12:33:16;98068.97;;;14.33;100.00
54407;BME280;40313;50.308;30.374;2022-10-03T12:35:53;98067.91;;;14.26;100.00
54407;BME280;40313;50.308;30.374;2022-10-03T12:38:32;98071.97;;;13.93;100.00
54407;BME280;40313;50.308;30.374;2022-10-03T12:41:12;98078.97;;;14.02;100.00
54407;BME280;40313;50.308;30.374;2022-10-03T12:43:54;98066.88;;;13.91;100.00
54407;BME280;40313;50.308;30.374;2022-10-03T12:46:36;98074.44;;;13.94;100.00
54407;BME280;40313;50.308;30.374;2022-10-03T12:49:08;98060.63;;;14.02;100.00
54407;BME280;40313;50.308;30.374;2022-10-03T12:51:50;98061.53;;;14.11;100.00
54407;BME280;40313;50.308;30.374;2022-10-03T12:54:27;98064.25;;;14.19;100.00
54407;BME280;40313;50.308;30.374;2022-10-03T12:57:10;98064.81;;;14.13;100.00
54407;BME280;40313;50.308;30.374;2022-10-03T12:59:45;98069.25;;;14.12;100.00
54407;BME280;40313;50.308;30.374;2022-10-03T13:02:31;98057.16;;;14.02;100.00
54407;BME280;40313;50.308;30.374;2022-10-03T13:05:23;98070.00;;;14.23;100.00
54407;BME280;40313;50.308;30.374;2022-10-03T13:07:55;98064.31;;;14.27;100.00
54407;BME280;40313;50.308;30.374;2022-10-03T13:10:32;98065.00;;;14.29;100.00
54407;BME280;40313;50.308;30.374;2022-10-03T13:13:21;98071.59;;;14.33;100.00
54407;BME280;40313;50.308;30.374;2022-10-03T13:16:04;98067.50;;;14.03;100.00
54407;BME280;40313;50.308;30.374;2022-10-03T13:18:51;98071.63;;;14.06;100.00
54407;BME280;40313;50.308;30.374;2022-10-03T13:21:23;98073.06;;;13.90;100.00
54407;BME280;40313;50.308;30.374;2022-10-03T13:23:58;98069.19;;;13.94;100.00
54407;BME280;40313;50.308;30.374;2022-10-03T13:26:38;98071.00;;;13.94;100.00
54407;BME280;40313;50.308;30.374;2022-10-03T13:29:26;98066.34;;;13.88;100.00
54407;BME280;40313;50.308;30.374;2022-10-03T13:32:11;98061.69;;;13.81;100.00
54407;BME280;40313;50.308;30.374;2022-10-03T13:34:56;98067.75;;;13.82;100.00
54407;BME280;40313;50.308;30.374;2022-10-03T13:37:58;98064.06;;;13.75;100.00
54407;BME280;40313;50.308;30.374;2022-10-03T13:40:36;98069.03;;;13.78;100.00
54407;BME280;40313;50.308;30.374;2022-10-03T13:43:11;98061.19;;;13.68;100.00
54407;BME280;40313;50.308;30.374;2022-10-03T13:45:42;98067.97;;;13.71;100.00
54407;BME280;40313;50.308;30.374;2022-10-03T13:48:12;98067.44;;;13.57;100.00
54407;BME280;40313;50.308;30.374;2022-10-03T13:50:44;98068.13;;;13.59;100.00
54407;BME280;40313;50.308;30.374;2022-10-03T13:53:22;98046.22;;;13.60;100.00
54407;BME280;40313;50.308;30.374;2022-10-03T13:55:53;98058.03;;;13.64;100.00
54407;BME280;40313;50.308;30.374;2022-10-03T13:58:37;98052.78;;;13.64;100.00
54407;BME280;40313;50.308;30.374;2022-10-03T14:01:33;98058.72;;;13.67;100.00
54407;BME280;40313;50.308;30.374;2022-10-03T14:04:38;98054.31;;;13.67;100.00
54407;BME280;40313;50.308;30.374;2022-10-03T14:07:14;98054.69;;;13.72;100.00
54407;BME280;40313;50.308;30.374;2022-10-03T14:10:08;98047.47;;;13.84;100.00
54407;BME280;40313;50.308;30.374;2022-10-03T14:12:51;98049.41;;;13.82;100.00
54407;BME280;40313;50.308;30.374;2022-10-03T14:15:41;98050.81;;;13.76;100.00
54407;BME280;40313;50.308;30.374;2022-10-03T14:18:21;98047.00;;;13.71;100.00
54407;BME280;40313;50.308;30.374;2022-10-03T14:21:25;98049.50;;;13.62;100.00
54407;BME280;40313;50.308;30.374;2022-10-03T14:24:04;98045.66;;;13.57;100.00
54407;BME280;40313;50.308;30.374;2022-10-03T14:26:42;98048.72;;;13.52;100.00
54407;BME280;40313;50.308;30.374;2022-10-03T14:29:18;98046.97;;;13.43;100.00
54407;BME280;40313;50.308;30.374;2022-10-03T14:31:55;98047.94;;;13.42;100.00
54407;BME280;40313;50.308;30.374;2022-10-03T14:34:37;98053.84;;;13.34;100.00
54407;BME280;40313;50.308;30.374;2022-10-03T14:37:17;98049.34;;;13.26;100.00
54407;BME280;40313;50.308;30.374;2022-10-03T14:39:55;98049.50;;;13.25;100.00
54407;BME280;40313;50.308;30.374;2022-10-03T14:42:43;98045.06;;;13.25;100.00
54407;BME280;40313;50.308;30.374;2022-10-03T14:45:17;98047.41;;;13.28;100.00
54407;BME280;40313;50.308;30.374;2022-10-03T14:47:50;98052.25;;;13.23;100.00
54407;BME280;40313;50.308;30.374;2022-10-03T14:50:21;98047.56;;;13.17;100.00
54407;BME280;40313;50.308;30.374;2022-10-03T14:52:51;98050.47;;;13.14;100.00
54407;BME280;40313;50.308;30.374;2022-10-03T14:55:27;98053.94;;;13.05;100.00
54407;BME280;40313;50.308;30.374;2022-10-03T14:58:00;98057.97;;;12.99;100.00
54407;BME280;40313;50.308;30.374;2022-10-03T15:00:37;98055.34;;;12.89;100.00
54407;BME280;40313;50.308;30.374;2022-10-03T15:03:22;98056.88;;;12.82;100.00
54407;BME280;40313;50.308;30.374;2022-10-03T15:05:55;98056.75;;;12.74;100.00
54407;BME280;40313;50.308;30.374;2022-10-03T15:08:25;98050.69;;;12.64;100.00
54407;BME280;40313;50.308;30.374;2022-10-03T15:10:55;98060.88;;;12.57;100.00
54407;BME280;40313;50.308;30.374;2022-10-03T15:13:23;98055.25;;;12.52;100.00
54407;BME280;40313;50.308;30.374;2022-10-03T15:15:54;98056.50;;;12.48;100.00
54407;BME280;40313;50.308;30.374;2022-10-03T15:18:22;98057.16;;;12.50;100.00
54407;BME280;40313;50.308;30.374;2022-10-03T15:20:51;98059.25;;;12.46;100.00
54407;BME280;40313;50.308;30.374;2022-10-03T15:23:20;98059.63;;;12.51;100.00
54407;BME280;40313;50.308;30.374;2022-10-03T15:25:51;98057.97;;;12.50;100.00
54407;BME280;40313;50.308;30.374;2022-10-03T15:28:20;98061.97;;;12.54;100.00
54407;BME280;40313;50.308;30.374;2022-10-03T15:30:50;98065.16;;;12.58;100.00
54407;BME280;40313;50.308;30.374;2022-10-03T15:33:25;98057.16;;;12.59;100.00
54407;BME280;40313;50.308;30.374;2022-10-03T15:36:05;98059.78;;;12.59;100.00
54407;BME280;40313;50.308;30.374;2022-10-03T15:38:37;98050.56;;;12.55;100.00
54407;BME280;40313;50.308;30.374;2022-10-03T15:41:08;98059.50;;;12.62;100.00
54407;BME280;40313;50.308;30.374;2022-10-03T15:43:42;98063.78;;;12.64;100.00
54407;BME280;40313;50.308;30.374;2022-10-03T15:46:14;98050.84;;;12.62;100.00